Terminal Aerodrome Forecast
Issued by NWS Des Moines, IA

Current Version | Previous Version | Text Only | Print | Product List | Glossary On
Versions: 1 2 3 4 5 6 7 8 9 10 11 12 13 14 15 16 17 18 19 20 21 22 23 24 25 26 27 28 29 30 31 32 33 34 35 36 37 38 39 40 41 42
116
FTUS43 KDMX 191138
TAFDSM
TAF
KDSM 191138Z 1912/2012 13009KT 5SM -RA BR SCT006 OVC016
      TEMPO 1912/1914 BKN005
     FM191400 VRB06KT 5SM BR OVC005
     FM191700 35009KT 6SM BR OVC007
     FM192300 34008KT P6SM OVC010
     FM200500 36006KT 3SM -FZRA BR OVC006=

USA.gov is the U.S. government's official web portal to all federal, state and local government web resources and services.